Eagle Springs, North Carolina
Current Conditions -  °F | °C
As of 12:35 PM on Friday 24 Oct 2014 (Local Time) from KSOP Reporting Station
Clear Clear  
Wind Chill: 64°   Ceiling: Unl
Heat Index: 64°   Visibility: 10mi
Dew Point: 43°   Wind: 3mph
Humidity: 45%   Direction: 200°SSW
Pressure: 30.05"   Gusts: NA
Location:  35.29°N, 79.65°W
Report Text: KSOP 241635Z AUTO 20003KT 10SM CLR 18/06 A3005 RMK AO1
Loading
Personal Weather Stations






























Interactive Weather Map
Tropical Storm Tracking
New forecast layout! Learn more

10-Day Weather Forecast

Advertisements
Track Severe Weather on mobile